Data for 09/06/2010

Time Sea-Level Adjusted Pressure Absolute Pressure Temperature Relative Humidity Dew Point   
(mb) (inHg) (mb) (inHg) (C) (F) (%) (C) (F)
00:05 1017 30.03 846 24.98 4.9 40.8 65 -1.1 29.9
00:10 1017 30.03 846 24.98 4.9 40.8 63 -1.6 29.1
00:15 1017 30.03 846 24.98 4.9 40.8 63 -1.5 29.3
00:20 1017 30.03 846 24.98 4.9 40.9 63 -1.6 29.2
00:25 1017 30.03 846 24.98 4.9 40.8 65 -1.1 30.1
00:30 1017 30.03 846 24.98 4.6 40.2 66 -1.3 29.7
00:35 1017 30.03 846 24.98 4.4 40 70 -0.6 30.9
00:40 1017 30.03 846 24.98 3.9 39.1 72 -0.6 31
00:45 1017 30.03 846 24.98 3.9 39 74 -0.3 31.4
00:50 1017 30.03 846 24.98 3.7 38.7 75 -0.3 31.5
00:55 1017 30.03 846 24.98 3.6 38.5 77 -0 31.9
01:00 1017 30.03 846 24.98 3.5 38.3 78 0.1 32.1
01:05 1017 30.03 846 24.98 3.5 38.3 75 -0.5 31.2
01:10 1017 30.03 846 24.98 3.8 38.9 73 -0.6 30.9
01:15 1017 30.03 846 24.98 4.1 39.4 69 -1 30.3
01:20 1017 30.03 847 25.01 4.3 39.8 68 -1 30.2
01:25 1017 30.03 847 25.01 4.3 39.8 68 -1 30.2
01:30 1017 30.03 847 25.01 4.3 39.7 69 -0.9 30.4
01:35 1017 30.03 847 25.01 4.3 39.7 69 -1 30.2
01:40 1017 30.03 847 25.01 4.3 39.7 67 -1.3 29.7
01:45 1017 30.03 846 24.98 4.4 39.8 67 -1.2 29.9
01:50 1017 30.03 847 25.01 4.3 39.7 67 -1.3 29.7
01:55 1017 30.03 847 25.01 4.2 39.6 69 -0.9 30.3
02:00 1018 30.06 847 25.01 4 39.2 70 -1 30.2
02:05 1018 30.06 847 25.01 4.1 39.3 68 -1.3 29.7
02:10 1018 30.06 847 25.01 4.2 39.5 67 -1.4 29.5
02:15 1018 30.06 847 25.01 4.3 39.7 67 -1.3 29.6
02:20 1018 30.06 847 25.01 4.2 39.6 69 -0.9 30.4
02:25 1018 30.06 847 25.01 4 39.3 69 -1 30.1
02:30 1018 30.06 847 25.01 3.9 39 72 -0.7 30.8
02:35 1018 30.06 847 25.01 3.7 38.7 72 -0.8 30.5
02:40 1018 30.06 847 25.01 3.8 38.8 71 -1 30.1
02:45 1018 30.06 847 25.01 4 39.2 70 -1 30.2
02:50 1018 30.06 847 25.01 4.3 39.7 69 -0.9 30.4
02:55 1018 30.06 847 25.01 4.4 39.9 68 -0.9 30.4
03:00 1018 30.06 847 25.01 4.5 40.1 68 -0.8 30.5
03:05 1018 30.06 847 25.01 4.5 40.1 69 -0.8 30.6
03:10 1018 30.06 847 25.01 4.5 40.1 68 -0.8 30.5
03:15 1018 30.06 847 25.01 4.5 40.1 68 -0.9 30.3
03:20 1018 30.06 847 25.01 4.6 40.3 68 -0.8 30.5
03:25 1018 30.06 847 25.01 4.7 40.4 67 -0.9 30.4
03:30 1018 30.06 847 25.01 4.6 40.3 68 -0.7 30.7
03:35 1018 30.06 847 25.01 4.6 40.2 69 -0.7 30.8
03:40 1018 30.06 847 25.01 4.5 40.2 69 -0.6 31
03:45 1018 30.06 847 25.01 4.5 40.1 70 -0.5 31
03:50 1018 30.06 847 25.01 4.5 40 69 -0.8 30.6
03:55 1018 30.06 847 25.01 4.4 40 69 -0.8 30.6
04:00 1018 30.06 847 25.01 4.4 40 69 -0.8 30.5
04:05 1018 30.06 847 25.01 4.4 40 69 -0.8 30.5
04:10 1018 30.06 847 25.01 4.5 40.1 68 -0.9 30.3
04:15 1018 30.06 847 25.01 4.5 40.1 68 -0.9 30.5
04:20 1018 30.06 847 25.01 4.6 40.2 68 -0.8 30.5
04:25 1018 30.06 848 25.04 4.6 40.3 68 -0.8 30.5
04:30 1018 30.06 848 25.04 4.6 40.3 68 -0.8 30.5
04:35 1019 30.09 848 25.04 4.6 40.4 67 -0.9 30.5
04:40 1019 30.09 848 25.04 4.7 40.4 67 -0.9 30.4
04:45 1019 30.09 848 25.04 4.7 40.4 67 -0.8 30.5
04:50 1019 30.09 848 25.04 4.7 40.5 67 -0.8 30.6
04:55 1019 30.09 848 25.04 4.8 40.6 68 -0.6 30.8
05:00 1019 30.09 848 25.04 4.8 40.6 68 -0.7 30.8
05:05 1019 30.09 848 25.04 4.8 40.6 68 -0.6 30.9
05:10 1019 30.09 848 25.04 4.9 40.8 68 -0.6 30.9
05:15 1019 30.09 848 25.04 5 41 68 -0.5 31.2
05:20 1019 30.09 848 25.04 5 40.9 68 -0.4 31.2
05:25 1019 30.09 848 25.04 4.9 40.8 68 -0.6 31
05:30 1019 30.09 848 25.04 4.9 40.8 68 -0.4 31.3
05:35 1019 30.09 848 25.04 4.9 40.8 69 -0.3 31.4
05:40 1019 30.09 848 25.04 4.9 40.8 69 -0.2 31.6
05:45 1019 30.09 848 25.04 5 40.9 68 -0.4 31.2
05:50 1019 30.09 848 25.04 5.1 41.1 67 -0.5 31.1
05:55 1019 30.09 848 25.04 5.2 41.3 66 -0.6 30.8
06:00 1019 30.09 848 25.04 5.2 41.3 67 -0.5 31.1
06:05 1019 30.09 848 25.04 5.2 41.3 67 -0.5 31.1
06:10 1019 30.09 848 25.04 5.2 41.3 66 -0.6 30.9
06:15 1019 30.09 848 25.04 5.1 41.2 67 -0.5 31.2
06:20 1019 30.09 848 25.04 5 41.1 67 -0.5 31
06:25 1019 30.09 848 25.04 5 41 67 -0.6 30.9
06:30 1019 30.09 848 25.04 5 41 67 -0.6 30.9
06:35 1019 30.09 848 25.04 5 41.1 67 -0.6 30.9
06:40 1019 30.09 849 25.07 5 41.1 67 -0.6 30.9
06:45 1019 30.09 849 25.07 5.1 41.1 68 -0.4 31.2
06:50 1019 30.09 849 25.07 5.1 41.1 66 -0.6 30.8
06:55 1019 30.09 849 25.07 5.2 41.3 66 -0.6 31
07:00 1019 30.09 849 25.07 5.2 41.4 67 -0.4 31.2
07:05 1019 30.09 849 25.07 5.2 41.3 67 -0.4 31.3
07:10 1019 30.09 849 25.07 5.1 41.2 68 -0.3 31.4
07:15 1019 30.09 849 25.07 5.1 41.2 68 -0.3 31.4
07:20 1019 30.09 849 25.07 5.2 41.3 66 -0.6 30.9
07:25 1019 30.09 849 25.07 5.3 41.5 66 -0.6 30.9
07:30 1019 30.09 849 25.07 5.4 41.8 63 -1 30.1
07:35 1020 30.12 849 25.07 5.5 41.9 63 -0.9 30.4
07:40 1020 30.12 849 25.07 5.5 42 63 -0.9 30.4
07:45 1020 30.12 849 25.07 5.6 42.1 63 -0.8 30.6
07:50 1020 30.12 849 25.07 5.8 42.4 63 -0.6 30.9
07:55 1020 30.12 849 25.07 5.8 42.5 67 0.1 32.2
08:00 1020 30.12 849 25.07 5.8 42.5 70 0.7 33.3
08:05 1020 30.12 849 25.07 5.7 42.2 69 0.5 32.9
08:10 1020 30.12 849 25.07 5.7 42.3 69 0.6 33
08:15 1020 30.12 849 25.07 5.8 42.5 69 0.7 33.2
08:20 1020 30.12 849 25.07 5.9 42.7 72 1.2 34.2
08:25 1020 30.12 849 25.07 5.8 42.5 69 0.7 33.2
08:30 1020 30.12 849 25.07 6.1 42.9 68 0.7 33.3
08:35 1020 30.12 849 25.07 6.3 43.3 64 0.1 32.1
08:40 1020 30.12 849 25.07 6.3 43.3 64 -0.1 31.8
08:45 1020 30.12 849 25.07 6.3 43.4 63 -0.2 31.6
08:50 1020 30.12 849 25.07 6.5 43.6 63 -0.2 31.7
08:55 1020 30.12 849 25.07 6.6 43.8 64 0.2 32.4
09:00 1020 30.12 849 25.07 6.5 43.8 66 0.7 33.2
09:05 1020 30.12 849 25.07 6.5 43.7 66 0.6 33.1
09:10 1020 30.12 849 25.07 7.2 45 62 0.4 32.7
09:15 1020 30.12 850 25.1 7.7 45.9 59 0.3 32.6
09:20 1020 30.12 850 25.1 8.4 47.2 55 -0.2 31.7
09:25 1020 30.12 850 25.1 8.9 48 56 0.7 33.2
09:30 1020 30.12 850 25.1 8.4 47.2 58 0.6 33.2
09:35 1021 30.15 850 25.1 8.3 46.9 58 0.5 32.8
09:40 1021 30.15 850 25.1 8.3 47 56 0 32.1
09:45 1021 30.15 850 25.1 8.2 46.7 57 0.2 32.3
09:50 1021 30.15 850 25.1 8.1 46.6 55 -0.3 31.4
09:55 1021 30.15 850 25.1 8.2 46.7 56 -0.1 31.8
10:00 1021 30.15 850 25.1 8.4 47.2 53 -0.7 30.8
10:05 1021 30.15 850 25.1 8.7 47.6 49 -1.5 29.3
10:10 1021 30.15 850 25.1 8.9 48 47 -1.8 28.8
10:15 1021 30.15 850 25.1 9.1 48.3 48 -1.5 29.4
10:20 1021 30.15 850 25.1 9.2 48.5 46 -1.9 28.5
10:25 1021 30.15 850 25.1 9.7 49.5 43 -2.3 27.9
10:30 1021 30.15 850 25.1 10.6 51 39 -2.6 27.2
10:35 1021 30.15 850 25.1 10.6 51.1 42 -1.8 28.8
10:40 1021 30.15 850 25.1 9.9 49.9 43 -2.1 28.2
10:45 1021 30.15 850 25.1 9.5 49 45 -1.9 28.5
10:50 1021 30.15 850 25.1 9.5 49.1 43 -2.5 27.6
10:55 1021 30.15 850 25.1 9.5 49 43 -2.6 27.3
11:00 1021 30.15 850 25.1 9.4 49 43 -2.4 27.7
11:05 1021 30.15 850 25.1 10.2 50.4 41 -2.3 27.8
11:10 1021 30.15 850 25.1 10.7 51.3 40 -2.3 27.8
11:15 1021 30.15 850 25.1 11.3 52.4 40 -1.6 29.1
11:20 1021 30.15 850 25.1 11.6 52.8 38 -2.1 28.3
11:25 1021 30.15 850 25.1 11.7 53 38 -2 28.4
11:30 1021 30.15 850 25.1 10.8 51.4 41 -1.9 28.5
11:35 1021 30.15 850 25.1 11.4 52.5 39 -2 28.5
11:40 1021 30.15 850 25.1 12 53.6 39 -1.5 29.3
11:45 1020 30.12 850 25.1 11.2 52.1 40 -1.8 28.8
11:50 1020 30.12 850 25.1 10.7 51.2 41 -2 28.4
11:55 1020 30.12 850 25.1 10.7 51.2 41 -2.1 28.3
12:00 1020 30.12 850 25.1 11 51.9 39 -2.5 27.6
12:05 1020 30.12 850 25.1 10.9 51.7 39 -2.5 27.5
12:10 1020 30.12 850 25.1 11 51.8 38 -2.6 27.3
12:15 1020 30.12 850 25.1 11.2 52.2 36 -3.3 26.1
12:20 1020 30.12 849 25.07 12.2 54 36 -2.4 27.8
12:25 1020 30.12 849 25.07 11.9 53.3 37 -2.2 28.1
12:30 1020 30.12 849 25.07 10.8 51.4 39 -2.6 27.4
12:35 1020 30.12 849 25.07 10.6 51.1 38 -3.2 26.3
12:40 1020 30.12 849 25.07 11.1 51.9 39 -2.3 27.8
12:45 1020 30.12 849 25.07 11.4 52.6 37 -2.9 26.8
12:50 1020 30.12 849 25.07 11.4 52.5 35 -3.5 25.8
12:55 1020 30.12 849 25.07 11.5 52.8 34 -3.8 25.2
13:00 1020 30.12 849 25.07 11.3 52.3 35 -3.4 25.8
13:05 1020 30.12 849 25.07 11.5 52.7 37 -2.6 27.3
13:10 1020 30.12 849 25.07 11.9 53.5 35 -3.1 26.5
13:15 1020 30.12 849 25.07 11.8 53.2 36 -2.9 26.8
13:20 1020 30.12 849 25.07 11.6 52.8 36 -2.9 26.8
13:25 1020 30.12 849 25.07 11.3 52.3 37 -2.7 27.1
13:30 1020 30.12 849 25.07 11.3 52.3 38 -2.6 27.4
13:35 1020 30.12 849 25.07 11.5 52.7 37 -2.7 27.1
13:40 1020 30.12 849 25.07 12.1 53.7 34 -3.4 25.9
13:45 1020 30.12 849 25.07 12.6 54.6 33 -3.2 26.2
13:50 1020 30.12 849 25.07 12.5 54.5 34 -2.8 26.9
13:55 1020 30.12 849 25.07 12.8 55 33 -3 26.6
14:00 1020 30.12 849 25.07 12.6 54.6 33 -3.1 26.3
14:05 1020 30.12 849 25.07 12.2 54 33 -3.5 25.7
14:10 1020 30.12 849 25.07 12.2 54 34 -3.2 26.2
14:15 1020 30.12 849 25.07 12.3 54.2 33 -3.6 25.5
14:20 1020 30.12 849 25.07 13.4 56.2 32 -2.7 27.2
14:25 1020 30.12 849 25.07 12.8 55 34 -2.7 27.1
14:30 1020 30.12 849 25.07 12.9 55.1 32 -3.3 26
14:35 1020 30.12 849 25.07 13.1 55.5 32 -3.3 26
14:40 1020 30.12 849 25.07 13.3 55.9 33 -2.7 27.1
14:45 1019 30.09 849 25.07 12.9 55.2 32 -3.2 26.3
14:50 1019 30.09 849 25.07 12.8 55.1 33 -2.9 26.7
14:55 1019 30.09 849 25.07 13.3 56 34 -2.2 28
15:00 1019 30.09 849 25.07 13 55.4 33 -3 26.5
15:05 1019 30.09 848 25.04 14 57.2 31 -2.8 26.9
15:10 1019 30.09 848 25.04 14.4 57.9 32 -2 28.4
15:15 1019 30.09 848 25.04 12.6 54.7 35 -2.2 28
15:20 1019 30.09 848 25.04 12.4 54.4 35 -2.5 27.4
15:25 1019 30.09 848 25.04 12.4 54.2 35 -2.5 27.4
15:30 1019 30.09 848 25.04 13.4 56.2 32 -2.8 27
15:35 1019 30.09 848 25.04 13.8 56.8 34 -1.7 28.9
15:40 1019 30.09 848 25.04 13.1 55.5 32 -3 26.6
15:45 1019 30.09 848 25.04 14 57.2 32 -2.5 27.5
15:50 1019 30.09 848 25.04 14.5 58 32 -1.8 28.8
15:55 1019 30.09 848 25.04 14 57.2 31 -2.9 26.8
16:00 1019 30.09 848 25.04 14.8 58.7 31 -2.2 28
16:05 1019 30.09 848 25.04 14.3 57.8 33 -1.7 28.9
16:10 1019 30.09 848 25.04 13.8 56.8 32 -2.7 27.2
16:15 1019 30.09 848 25.04 13.7 56.6 32 -2.8 26.9
16:20 1019 30.09 848 25.04 14.3 57.7 30 -3.1 26.4
16:25 1019 30.09 848 25.04 14.5 58.2 30 -2.5 27.4
16:30 1019 30.09 848 25.04 14.5 58.1 30 -2.8 27
16:35 1019 30.09 848 25.04 15.4 59.7 28 -3 26.7
16:40 1019 30.09 848 25.04 15.9 60.7 26 -3.3 26
16:45 1019 30.09 848 25.04 15 58.9 27 -3.8 25.2
16:50 1019 30.09 848 25.04 15.6 60 28 -2.7 27.1
16:55 1019 30.09 848 25.04 16 60.8 26 -3.3 26
17:00 1019 30.09 848 25.04 16.2 61.2 26 -3.3 26.1
17:05 1019 30.09 848 25.04 16.3 61.3 28 -2.4 27.7
17:10 1019 30.09 848 25.04 15.3 59.5 29 -2.4 27.6
17:15 1019 30.09 848 25.04 14.5 58 30 -2.8 27
17:20 1018 30.06 848 25.04 14.1 57.4 32 -2.4 27.7
17:25 1018 30.06 848 25.04 14 57.2 32 -2.5 27.6
17:30 1018 30.06 848 25.04 14.2 57.5 30 -3 26.7
17:35 1018 30.06 848 25.04 14.8 58.6 30 -2.6 27.3
17:40 1018 30.06 848 25.04 14.5 58.2 32 -2 28.3
17:45 1018 30.06 848 25.04 13.8 56.8 30 -3.3 26.1
17:50 1018 30.06 848 25.04 13.7 56.7 31 -3.1 26.5
17:55 1018 30.06 848 25.04 14 57.2 30 -3.3 26
18:00 1018 30.06 848 25.04 13.2 55.7 32 -3.2 26.2
18:05 1018 30.06 848 25.04 12.9 55.2 31 -3.6 25.6
18:10 1018 30.06 848 25.04 13 55.3 31 -3.5 25.7
18:15 1018 30.06 848 25.04 13.1 55.6 34 -2.4 27.6
18:20 1018 30.06 847 25.01 13.1 55.5 34 -2.5 27.4
18:25 1018 30.06 847 25.01 13 55.3 33 -2.9 26.8
18:30 1018 30.06 847 25.01 12.9 55.2 32 -3.4 25.8
18:35 1018 30.06 848 25.04 12.9 55.1 32 -3.5 25.8
18:40 1018 30.06 847 25.01 12.9 55.2 33 -2.8 26.9
18:45 1018 30.06 847 25.01 12.8 55 34 -2.7 27.1
18:50 1018 30.06 847 25.01 12.7 54.8 35 -2.5 27.6
18:55 1018 30.06 847 25.01 12.7 54.8 32 -3.7 25.3
19:00 1018 30.06 847 25.01 12.7 54.8 33 -3.1 26.4
19:05 1018 30.06 847 25.01 12.7 54.9 33 -3.2 26.3
19:10 1018 30.06 847 25.01 12.7 54.9 36 -2 28.4
19:15 1018 30.06 847 25.01 12.7 54.9 36 -1.8 28.8
19:20 1018 30.06 847 25.01 12.8 55 36 -1.9 28.7
19:25 1018 30.06 847 25.01 12.7 54.9 34 -2.7 27.2
19:30 1018 30.06 847 25.01 12.5 54.6 35 -2.5 27.6
19:35 1018 30.06 847 25.01 12.4 54.3 33 -3.4 25.9
19:40 1018 30.06 847 25.01 12.3 54.1 33 -3.6 25.5
19:45 1018 30.06 847 25.01 12.2 53.9 33 -3.4 25.8
19:50 1018 30.06 847 25.01 12.1 53.7 33 -3.5 25.7
19:55 1018 30.06 847 25.01 11.9 53.4 36 -2.5 27.5
20:00 1018 30.06 847 25.01 11.9 53.4 39 -1.7 29
20:05 1018 30.06 847 25.01 11.8 53.2 37 -2.2 28
20:10 1018 30.06 847 25.01 11.7 53.1 45 0.1 32.3
20:15 1018 30.06 847 25.01 11.1 52 52 1.6 34.9
20:20 1018 30.06 847 25.01 10.6 51 55 2 35.7
20:25 1018 30.06 847 25.01 10.2 50.4 59 2.7 36.9
20:30 1018 30.06 847 25.01 9.8 49.6 61 2.7 36.8
20:35 1018 30.06 847 25.01 9.5 49 61 2.4 36.4
20:40 1018 30.06 847 25.01 9.1 48.5 63 2.4 36.4
20:45 1018 30.06 847 25.01 9 48.2 63 2.5 36.5
20:50 1018 30.06 848 25.04 8.7 47.6 66 2.7 36.8
20:55 1018 30.06 848 25.04 8.2 46.8 68 2.7 36.8
21:00 1018 30.06 848 25.04 8 46.4 67 2.2 36
21:05 1018 30.06 848 25.04 7.9 46.2 65 1.7 35
21:10 1018 30.06 848 25.04 7.9 46.3 65 1.7 35.1
21:15 1018 30.06 848 25.04 7.9 46.3 63 1.4 34.6
21:20 1018 30.06 848 25.04 8.1 46.5 61 1 33.9
21:25 1019 30.09 848 25.04 8 46.4 63 1.4 34.5
21:30 1019 30.09 848 25.04 7.9 46.2 63 1.3 34.3
21:35 1019 30.09 848 25.04 7.9 46.1 62 1 33.9
21:40 1019 30.09 848 25.04 8 46.4 61 0.9 33.7
21:45 1019 30.09 848 25.04 8.1 46.6 61 1.1 34
21:50 1019 30.09 848 25.04 7.8 46.1 62 1.1 34
21:55 1019 30.09 848 25.04 7.7 45.8 61 0.7 33.2
22:00 1019 30.09 848 25.04 8.1 46.7 59 0.6 33.1
22:05 1019 30.09 848 25.04 8.3 46.9 61 1.3 34.3
22:10 1019 30.09 848 25.04 7.9 46.3 62 1 33.9
22:15 1019 30.09 848 25.04 8.1 46.6 59 0.6 33.1
22:20 1019 30.09 848 25.04 8.1 46.6 59 0.5 33
22:25 1019 30.09 848 25.04 7.8 46.1 60 0.5 32.9
22:30 1019 30.09 848 25.04 7.6 45.7 61 0.6 33
22:35 1019 30.09 848 25.04 7.4 45.3 61 0.4 32.7
22:40 1019 30.09 848 25.04 7.2 44.9 62 0.5 32.8
22:45 1019 30.09 848 25.04 7 44.6 63 0.4 32.7
22:50 1019 30.09 848 25.04 7 44.6 62 0.2 32.3
22:55 1019 30.09 848 25.04 7 44.6 61 0.1 32.2
23:00 1019 30.09 848 25.04 6.9 44.5 62 0.2 32.3
23:05 1019 30.09 848 25.04 6.9 44.4 62 0.1 32.1
23:10 1019 30.09 848 25.04 6.8 44.3 62 -0 32
23:15 1019 30.09 848 25.04 6.7 44.1 62 -0 32
23:20 1019 30.09 848 25.04 6.7 44 62 -0 32
23:25 1019 30.09 848 25.04 6.5 43.8 62 -0.2 31.7
23:30 1019 30.09 848 25.04 6.6 43.9 62 -0.2 31.6
23:35 1018 30.06 848 25.04 6.6 43.9 62 -0.1 31.8
23:40 1019 30.09 848 25.04 6.5 43.7 62 -0.2 31.6
23:45 1019 30.09 848 25.04 6.4 43.6 63 -0.2 31.7
23:50 1019 30.09 848 25.04 6.5 43.6 62 -0.3 31.4
23:55 1019 30.09 848 25.04 6.6 43.9 61 -0.4 31.2
24:00 1019 30.09 848 25.04 6.6 43.8 61 -0.3 31.4